sensor_id;sensor_type;location;lat;lon;timestamp;P1;durP1;ratioP1;P2;durP2;ratioP2
19089;SDS011;9677;50.656;13.064;2023-01-09T00:00:13;11.10;;;10.10;;
19089;SDS011;9677;50.656;13.064;2023-01-09T00:02:45;12.20;;;11.00;;
19089;SDS011;9677;50.656;13.064;2023-01-09T00:05:14;12.20;;;11.10;;
19089;SDS011;9677;50.656;13.064;2023-01-09T00:07:46;12.23;;;11.13;;
19089;SDS011;9677;50.656;13.064;2023-01-09T00:10:14;11.53;;;10.43;;
19089;SDS011;9677;50.656;13.064;2023-01-09T00:12:42;11.40;;;10.30;;
19089;SDS011;9677;50.656;13.064;2023-01-09T00:15:11;11.70;;;10.50;;
19089;SDS011;9677;50.656;13.064;2023-01-09T00:17:39;11.37;;;10.37;;
19089;SDS011;9677;50.656;13.064;2023-01-09T00:20:08;12.10;;;11.00;;
19089;SDS011;9677;50.656;13.064;2023-01-09T00:22:37;12.03;;;10.83;;
19089;SDS011;9677;50.656;13.064;2023-01-09T00:25:07;12.00;;;10.90;;
19089;SDS011;9677;50.656;13.064;2023-01-09T00:27:36;11.77;;;10.67;;
19089;SDS011;9677;50.656;13.064;2023-01-09T00:30:05;12.00;;;10.90;;
19089;SDS011;9677;50.656;13.064;2023-01-09T00:32:36;11.90;;;10.80;;
19089;SDS011;9677;50.656;13.064;2023-01-09T00:35:04;11.60;;;10.60;;
19089;SDS011;9677;50.656;13.064;2023-01-09T00:37:35;12.00;;;11.00;;
19089;SDS011;9677;50.656;13.064;2023-01-09T00:40:04;11.60;;;10.60;;
19089;SDS011;9677;50.656;13.064;2023-01-09T00:42:34;11.60;;;10.60;;
19089;SDS011;9677;50.656;13.064;2023-01-09T00:45:04;11.27;;;10.27;;
19089;SDS011;9677;50.656;13.064;2023-01-09T00:47:38;11.83;;;10.83;;
19089;SDS011;9677;50.656;13.064;2023-01-09T00:50:11;11.57;;;10.57;;
19089;SDS011;9677;50.656;13.064;2023-01-09T00:52:43;11.30;;;10.30;;
19089;SDS011;9677;50.656;13.064;2023-01-09T00:55:13;12.37;;;11.27;;
19089;SDS011;9677;50.656;13.064;2023-01-09T00:57:43;11.47;;;10.37;;
19089;SDS011;9677;50.656;13.064;2023-01-09T01:00:12;11.67;;;10.57;;
19089;SDS011;9677;50.656;13.064;2023-01-09T01:02:41;11.70;;;10.60;;
19089;SDS011;9677;50.656;13.064;2023-01-09T01:05:10;13.10;;;11.90;;
19089;SDS011;9677;50.656;13.064;2023-01-09T01:07:55;11.77;;;10.67;;
19089;SDS011;9677;50.656;13.064;2023-01-09T01:10:24;12.83;;;11.63;;
19089;SDS011;9677;50.656;13.064;2023-01-09T01:12:55;12.40;;;11.20;;
19089;SDS011;9677;50.656;13.064;2023-01-09T01:15:23;12.83;;;11.63;;
19089;SDS011;9677;50.656;13.064;2023-01-09T01:17:54;11.70;;;10.50;;
19089;SDS011;9677;50.656;13.064;2023-01-09T01:20:23;12.70;;;11.50;;
19089;SDS011;9677;50.656;13.064;2023-01-09T01:22:51;12.60;;;11.37;;
19089;SDS011;9677;50.656;13.064;2023-01-09T01:25:20;12.13;;;11.03;;
19089;SDS011;9677;50.656;13.064;2023-01-09T01:27:48;12.10;;;10.90;;
19089;SDS011;9677;50.656;13.064;2023-01-09T01:30:18;12.40;;;11.20;;
19089;SDS011;9677;50.656;13.064;2023-01-09T01:32:47;12.03;;;10.83;;
19089;SDS011;9677;50.656;13.064;2023-01-09T01:35:15;12.47;;;11.37;;
19089;SDS011;9677;50.656;13.064;2023-01-09T01:37:44;11.90;;;10.80;;
19089;SDS011;9677;50.656;13.064;2023-01-09T01:40:15;11.53;;;10.53;;
19089;SDS011;9677;50.656;13.064;2023-01-09T01:42:44;12.07;;;10.90;;
19089;SDS011;9677;50.656;13.064;2023-01-09T01:45:15;12.30;;;11.20;;
19089;SDS011;9677;50.656;13.064;2023-01-09T01:47:49;12.10;;;11.00;;
19089;SDS011;9677;50.656;13.064;2023-01-09T01:50:23;12.40;;;11.30;;
19089;SDS011;9677;50.656;13.064;2023-01-09T01:52:59;11.93;;;10.83;;
19089;SDS011;9677;50.656;13.064;2023-01-09T01:55:34;11.73;;;10.63;;
19089;SDS011;9677;50.656;13.064;2023-01-09T01:58:08;12.97;;;10.87;;
19089;SDS011;9677;50.656;13.064;2023-01-09T02:00:41;12.20;;;11.10;;
19089;SDS011;9677;50.656;13.064;2023-01-09T02:03:18;12.10;;;11.00;;
19089;SDS011;9677;50.656;13.064;2023-01-09T02:05:50;12.20;;;11.10;;
19089;SDS011;9677;50.656;13.064;2023-01-09T02:08:18;12.50;;;11.40;;
19089;SDS011;9677;50.656;13.064;2023-01-09T02:10:48;11.73;;;10.63;;
19089;SDS011;9677;50.656;13.064;2023-01-09T02:13:16;12.10;;;11.00;;
19089;SDS011;9677;50.656;13.064;2023-01-09T02:15:55;11.23;;;10.20;;
19089;SDS011;9677;50.656;13.064;2023-01-09T02:18:44;11.97;;;10.87;;
19089;SDS011;9677;50.656;13.064;2023-01-09T02:21:21;11.97;;;10.87;;
19089;SDS011;9677;50.656;13.064;2023-01-09T02:24:07;11.80;;;10.70;;
19089;SDS011;9677;50.656;13.064;2023-01-09T02:27:14;11.80;;;10.73;;
19089;SDS011;9677;50.656;13.064;2023-01-09T02:32:59;12.13;;;11.03;;
19089;SDS011;9677;50.656;13.064;2023-01-09T02:35:46;11.50;;;10.40;;
19089;SDS011;9677;50.656;13.064;2023-01-09T02:38:30;11.23;;;10.23;;
19089;SDS011;9677;50.656;13.064;2023-01-09T02:41:07;12.07;;;10.97;;
19089;SDS011;9677;50.656;13.064;2023-01-09T02:43:43;11.83;;;10.73;;
19089;SDS011;9677;50.656;13.064;2023-01-09T02:46:17;12.03;;;10.93;;
19089;SDS011;9677;50.656;13.064;2023-01-09T02:48:48;11.00;;;10.00;;
19089;SDS011;9677;50.656;13.064;2023-01-09T02:51:20;11.80;;;10.80;;
19089;SDS011;9677;50.656;13.064;2023-01-09T02:54:00;11.33;;;10.33;;
19089;SDS011;9677;50.656;13.064;2023-01-09T02:56:55;11.93;;;10.83;;
19089;SDS011;9677;50.656;13.064;2023-01-09T02:59:44;11.90;;;10.80;;
19089;SDS011;9677;50.656;13.064;2023-01-09T03:02:33;11.70;;;10.70;;
19089;SDS011;9677;50.656;13.064;2023-01-09T03:05:15;11.50;;;10.50;;
19089;SDS011;9677;50.656;13.064;2023-01-09T03:07:52;11.60;;;10.60;;
19089;SDS011;9677;50.656;13.064;2023-01-09T03:10:35;10.93;;;9.93;;
19089;SDS011;9677;50.656;13.064;2023-01-09T03:13:08;11.90;;;10.80;;
19089;SDS011;9677;50.656;13.064;2023-01-09T03:15:41;11.20;;;10.20;;
19089;SDS011;9677;50.656;13.064;2023-01-09T03:18:17;11.23;;;10.23;;
19089;SDS011;9677;50.656;13.064;2023-01-09T03:20:49;11.30;;;10.30;;
19089;SDS011;9677;50.656;13.064;2023-01-09T03:23:18;11.50;;;10.50;;
19089;SDS011;9677;50.656;13.064;2023-01-09T03:25:47;10.73;;;9.83;;
19089;SDS011;9677;50.656;13.064;2023-01-09T03:28:17;11.27;;;10.27;;
19089;SDS011;9677;50.656;13.064;2023-01-09T03:30:53;11.27;;;10.30;;
19089;SDS011;9677;50.656;13.064;2023-01-09T03:33:23;11.07;;;10.13;;
19089;SDS011;9677;50.656;13.064;2023-01-09T03:35:52;11.60;;;10.60;;
19089;SDS011;9677;50.656;13.064;2023-01-09T03:38:20;10.90;;;10.00;;
19089;SDS011;9677;50.656;13.064;2023-01-09T03:40:48;11.13;;;10.13;;
19089;SDS011;9677;50.656;13.064;2023-01-09T03:43:17;10.93;;;10.00;;
19089;SDS011;9677;50.656;13.064;2023-01-09T03:45:45;11.63;;;10.63;;
19089;SDS011;9677;50.656;13.064;2023-01-09T03:48:14;11.90;;;10.90;;
19089;SDS011;9677;50.656;13.064;2023-01-09T03:50:43;11.17;;;10.27;;
19089;SDS011;9677;50.656;13.064;2023-01-09T03:53:12;11.50;;;10.50;;
19089;SDS011;9677;50.656;13.064;2023-01-09T03:55:42;12.10;;;11.00;;
19089;SDS011;9677;50.656;13.064;2023-01-09T03:58:12;11.50;;;10.47;;
19089;SDS011;9677;50.656;13.064;2023-01-09T04:00:42;11.83;;;10.73;;
19089;SDS011;9677;50.656;13.064;2023-01-09T04:03:14;11.60;;;10.60;;
19089;SDS011;9677;50.656;13.064;2023-01-09T04:05:46;11.20;;;10.20;;
19089;SDS011;9677;50.656;13.064;2023-01-09T04:08:16;11.30;;;10.30;;
19089;SDS011;9677;50.656;13.064;2023-01-09T04:10:45;11.67;;;10.43;;
19089;SDS011;9677;50.656;13.064;2023-01-09T04:13:14;11.47;;;10.47;;
19089;SDS011;9677;50.656;13.064;2023-01-09T04:15:43;11.00;;;10.10;;
19089;SDS011;9677;50.656;13.064;2023-01-09T04:18:11;10.93;;;10.03;;
19089;SDS011;9677;50.656;13.064;2023-01-09T04:20:40;11.47;;;10.47;;
19089;SDS011;9677;50.656;13.064;2023-01-09T04:23:10;11.93;;;10.83;;
19089;SDS011;9677;50.656;13.064;2023-01-09T04:25:38;11.43;;;10.43;;
19089;SDS011;9677;50.656;13.064;2023-01-09T04:28:07;11.27;;;10.27;;
19089;SDS011;9677;50.656;13.064;2023-01-09T04:30:35;12.00;;;11.00;;
19089;SDS011;9677;50.656;13.064;2023-01-09T04:33:03;11.30;;;10.30;;
19089;SDS011;9677;50.656;13.064;2023-01-09T04:35:32;10.87;;;9.97;;
19089;SDS011;9677;50.656;13.064;2023-01-09T04:38:00;11.70;;;10.70;;
19089;SDS011;9677;50.656;13.064;2023-01-09T04:40:30;11.60;;;10.60;;
19089;SDS011;9677;50.656;13.064;2023-01-09T04:42:58;11.97;;;10.97;;
19089;SDS011;9677;50.656;13.064;2023-01-09T04:45:27;11.47;;;10.47;;
19089;SDS011;9677;50.656;13.064;2023-01-09T04:47:55;11.20;;;10.20;;
19089;SDS011;9677;50.656;13.064;2023-01-09T04:50:24;11.33;;;10.33;;
19089;SDS011;9677;50.656;13.064;2023-01-09T04:52:52;11.70;;;10.70;;
19089;SDS011;9677;50.656;13.064;2023-01-09T04:55:22;11.80;;;10.80;;
19089;SDS011;9677;50.656;13.064;2023-01-09T04:57:52;11.77;;;10.77;;
19089;SDS011;9677;50.656;13.064;2023-01-09T05:00:20;11.60;;;10.60;;
19089;SDS011;9677;50.656;13.064;2023-01-09T05:02:48;12.00;;;10.90;;
19089;SDS011;9677;50.656;13.064;2023-01-09T05:05:17;11.60;;;10.60;;
19089;SDS011;9677;50.656;13.064;2023-01-09T05:07:46;12.73;;;11.40;;
19089;SDS011;9677;50.656;13.064;2023-01-09T05:10:14;11.33;;;10.33;;
19089;SDS011;9677;50.656;13.064;2023-01-09T05:12:43;11.07;;;10.03;;
19089;SDS011;9677;50.656;13.064;2023-01-09T05:15:13;11.37;;;10.37;;
19089;SDS011;9677;50.656;13.064;2023-01-09T05:17:41;12.30;;;11.20;;
19089;SDS011;9677;50.656;13.064;2023-01-09T05:20:09;12.50;;;11.40;;
19089;SDS011;9677;50.656;13.064;2023-01-09T05:22:38;12.00;;;11.00;;
19089;SDS011;9677;50.656;13.064;2023-01-09T05:25:07;12.40;;;11.30;;
19089;SDS011;9677;50.656;13.064;2023-01-09T05:27:36;11.47;;;10.47;;
19089;SDS011;9677;50.656;13.064;2023-01-09T05:30:04;11.37;;;10.37;;
19089;SDS011;9677;50.656;13.064;2023-01-09T05:32:35;12.47;;;11.37;;
19089;SDS011;9677;50.656;13.064;2023-01-09T05:35:04;11.50;;;10.40;;
19089;SDS011;9677;50.656;13.064;2023-01-09T05:37:34;11.50;;;10.50;;
19089;SDS011;9677;50.656;13.064;2023-01-09T05:40:02;11.87;;;10.80;;
19089;SDS011;9677;50.656;13.064;2023-01-09T05:42:31;12.13;;;11.10;;
19089;SDS011;9677;50.656;13.064;2023-01-09T05:45:00;11.80;;;10.80;;
19089;SDS011;9677;50.656;13.064;2023-01-09T05:47:28;11.90;;;10.90;;
19089;SDS011;9677;50.656;13.064;2023-01-09T05:49:58;11.33;;;10.33;;
19089;SDS011;9677;50.656;13.064;2023-01-09T05:52:26;11.50;;;10.43;;
19089;SDS011;9677;50.656;13.064;2023-01-09T05:54:54;11.63;;;10.63;;
19089;SDS011;9677;50.656;13.064;2023-01-09T05:57:23;10.87;;;9.97;;
19089;SDS011;9677;50.656;13.064;2023-01-09T05:59:51;11.53;;;10.53;;
19089;SDS011;9677;50.656;13.064;2023-01-09T06:02:20;11.40;;;10.40;;
19089;SDS011;9677;50.656;13.064;2023-01-09T06:04:48;11.30;;;10.30;;
19089;SDS011;9677;50.656;13.064;2023-01-09T06:07:18;10.90;;;10.00;;
19089;SDS011;9677;50.656;13.064;2023-01-09T06:09:48;11.60;;;10.60;;
19089;SDS011;9677;50.656;13.064;2023-01-09T06:12:17;10.83;;;9.93;;
19089;SDS011;9677;50.656;13.064;2023-01-09T06:14:45;11.50;;;10.50;;
19089;SDS011;9677;50.656;13.064;2023-01-09T06:17:13;11.40;;;10.40;;
19089;SDS011;9677;50.656;13.064;2023-01-09T06:19:42;12.27;;;11.17;;
19089;SDS011;9677;50.656;13.064;2023-01-09T06:22:10;12.17;;;11.10;;
19089;SDS011;9677;50.656;13.064;2023-01-09T06:24:40;11.30;;;10.30;;
19089;SDS011;9677;50.656;13.064;2023-01-09T06:27:08;11.07;;;10.13;;
19089;SDS011;9677;50.656;13.064;2023-01-09T06:29:38;11.53;;;10.53;;
19089;SDS011;9677;50.656;13.064;2023-01-09T06:32:07;11.87;;;10.87;;
19089;SDS011;9677;50.656;13.064;2023-01-09T06:34:35;12.10;;;11.00;;
19089;SDS011;9677;50.656;13.064;2023-01-09T06:37:03;12.20;;;11.10;;
19089;SDS011;9677;50.656;13.064;2023-01-09T06:39:31;11.33;;;10.33;;
19089;SDS011;9677;50.656;13.064;2023-01-09T06:42:02;11.20;;;10.20;;
19089;SDS011;9677;50.656;13.064;2023-01-09T06:44:30;11.40;;;10.40;;
19089;SDS011;9677;50.656;13.064;2023-01-09T06:47:02;11.80;;;10.77;;
19089;SDS011;9677;50.656;13.064;2023-01-09T06:49:30;11.67;;;10.57;;
19089;SDS011;9677;50.656;13.064;2023-01-09T06:51:58;11.33;;;10.33;;
19089;SDS011;9677;50.656;13.064;2023-01-09T06:54:31;11.30;;;10.30;;
19089;SDS011;9677;50.656;13.064;2023-01-09T06:56:59;11.47;;;10.47;;
19089;SDS011;9677;50.656;13.064;2023-01-09T06:59:29;12.00;;;10.90;;
19089;SDS011;9677;50.656;13.064;2023-01-09T07:01:57;11.20;;;10.20;;
19089;SDS011;9677;50.656;13.064;2023-01-09T07:04:26;10.90;;;10.00;;
19089;SDS011;9677;50.656;13.064;2023-01-09T07:06:54;11.73;;;10.73;;
19089;SDS011;9677;50.656;13.064;2023-01-09T07:09:23;11.33;;;10.33;;
19089;SDS011;9677;50.656;13.064;2023-01-09T07:11:51;11.03;;;10.13;;
19089;SDS011;9677;50.656;13.064;2023-01-09T07:14:21;11.13;;;10.23;;
19089;SDS011;9677;50.656;13.064;2023-01-09T07:16:49;11.43;;;10.43;;
19089;SDS011;9677;50.656;13.064;2023-01-09T07:19:17;11.13;;;10.13;;
19089;SDS011;9677;50.656;13.064;2023-01-09T07:21:46;11.60;;;10.60;;
19089;SDS011;9677;50.656;13.064;2023-01-09T07:24:14;11.33;;;10.40;;
19089;SDS011;9677;50.656;13.064;2023-01-09T07:26:43;11.10;;;10.20;;
19089;SDS011;9677;50.656;13.064;2023-01-09T07:29:11;10.47;;;9.57;;
19089;SDS011;9677;50.656;13.064;2023-01-09T07:31:41;11.07;;;10.10;;
19089;SDS011;9677;50.656;13.064;2023-01-09T07:34:09;11.00;;;10.00;;
19089;SDS011;9677;50.656;13.064;2023-01-09T07:36:37;10.87;;;9.97;;
19089;SDS011;9677;50.656;13.064;2023-01-09T07:39:06;11.50;;;10.50;;
19089;SDS011;9677;50.656;13.064;2023-01-09T07:41:34;10.63;;;9.73;;
19089;SDS011;9677;50.656;13.064;2023-01-09T07:44:07;11.20;;;10.20;;
19089;SDS011;9677;50.656;13.064;2023-01-09T07:46:36;10.90;;;9.90;;
19089;SDS011;9677;50.656;13.064;2023-01-09T07:49:06;11.37;;;10.27;;
19089;SDS011;9677;50.656;13.064;2023-01-09T07:51:35;10.83;;;9.93;;
19089;SDS011;9677;50.656;13.064;2023-01-09T07:54:08;10.37;;;9.47;;
19089;SDS011;9677;50.656;13.064;2023-01-09T07:56:38;11.03;;;10.13;;
19089;SDS011;9677;50.656;13.064;2023-01-09T07:59:06;11.17;;;10.23;;
19089;SDS011;9677;50.656;13.064;2023-01-09T08:01:35;10.83;;;9.93;;
19089;SDS011;9677;50.656;13.064;2023-01-09T08:04:03;10.83;;;9.93;;
19089;SDS011;9677;50.656;13.064;2023-01-09T08:06:33;10.40;;;9.40;;
19089;SDS011;9677;50.656;13.064;2023-01-09T08:09:01;10.70;;;9.80;;
19089;SDS011;9677;50.656;13.064;2023-01-09T08:11:30;10.70;;;9.80;;
19089;SDS011;9677;50.656;13.064;2023-01-09T08:13:58;11.07;;;10.07;;
19089;SDS011;9677;50.656;13.064;2023-01-09T08:16:27;10.73;;;9.83;;
19089;SDS011;9677;50.656;13.064;2023-01-09T08:18:55;11.20;;;10.30;;
19089;SDS011;9677;50.656;13.064;2023-01-09T08:21:23;10.30;;;9.40;;
19089;SDS011;9677;50.656;13.064;2023-01-09T08:23:53;10.70;;;9.80;;
19089;SDS011;9677;50.656;13.064;2023-01-09T08:26:21;10.80;;;9.90;;
19089;SDS011;9677;50.656;13.064;2023-01-09T08:28:50;10.23;;;9.43;;
19089;SDS011;9677;50.656;13.064;2023-01-09T08:31:18;10.80;;;9.90;;
19089;SDS011;9677;50.656;13.064;2023-01-09T08:33:47;10.40;;;9.50;;
19089;SDS011;9677;50.656;13.064;2023-01-09T08:36:15;10.43;;;9.53;;
19089;SDS011;9677;50.656;13.064;2023-01-09T08:38:44;10.43;;;9.53;;
19089;SDS011;9677;50.656;13.064;2023-01-09T08:41:15;10.70;;;9.80;;
19089;SDS011;9677;50.656;13.064;2023-01-09T08:44:01;10.80;;;9.90;;
19089;SDS011;9677;50.656;13.064;2023-01-09T08:46:46;10.17;;;9.37;;
19089;SDS011;9677;50.656;13.064;2023-01-09T08:49:33;10.60;;;9.70;;
19089;SDS011;9677;50.656;13.064;2023-01-09T08:52:04;10.90;;;9.93;;
19089;SDS011;9677;50.656;13.064;2023-01-09T08:54:33;10.63;;;9.73;;
19089;SDS011;9677;50.656;13.064;2023-01-09T08:57:03;10.63;;;9.73;;
19089;SDS011;9677;50.656;13.064;2023-01-09T08:59:32;9.93;;;9.13;;
19089;SDS011;9677;50.656;13.064;2023-01-09T09:02:02;10.80;;;9.90;;
19089;SDS011;9677;50.656;13.064;2023-01-09T09:04:30;10.67;;;9.77;;
19089;SDS011;9677;50.656;13.064;2023-01-09T09:06:59;10.47;;;9.57;;
19089;SDS011;9677;50.656;13.064;2023-01-09T09:09:27;10.67;;;9.77;;
19089;SDS011;9677;50.656;13.064;2023-01-09T09:11:55;10.83;;;9.93;;
19089;SDS011;9677;50.656;13.064;2023-01-09T09:14:25;10.10;;;9.30;;
19089;SDS011;9677;50.656;13.064;2023-01-09T09:17:11;10.33;;;9.43;;
19089;SDS011;9677;50.656;13.064;2023-01-09T09:19:39;10.43;;;9.53;;
19089;SDS011;9677;50.656;13.064;2023-01-09T09:22:08;10.77;;;9.87;;
19089;SDS011;9677;50.656;13.064;2023-01-09T09:24:37;10.40;;;9.50;;
19089;SDS011;9677;50.656;13.064;2023-01-09T09:27:05;10.07;;;9.27;;
19089;SDS011;9677;50.656;13.064;2023-01-09T09:29:35;10.20;;;9.40;;
19089;SDS011;9677;50.656;13.064;2023-01-09T09:32:03;10.40;;;9.50;;
19089;SDS011;9677;50.656;13.064;2023-01-09T09:34:32;10.77;;;9.87;;
19089;SDS011;9677;50.656;13.064;2023-01-09T09:37:00;10.73;;;9.83;;
19089;SDS011;9677;50.656;13.064;2023-01-09T09:39:28;10.50;;;9.60;;
19089;SDS011;9677;50.656;13.064;2023-01-09T09:42:02;10.20;;;9.40;;
19089;SDS011;9677;50.656;13.064;2023-01-09T09:45:15;10.10;;;9.30;;
19089;SDS011;9677;50.656;13.064;2023-01-09T09:47:55;10.30;;;9.47;;
19089;SDS011;9677;50.656;13.064;2023-01-09T09:51:01;9.87;;;9.07;;
19089;SDS011;9677;50.656;13.064;2023-01-09T09:53:46;9.97;;;9.17;;
19089;SDS011;9677;50.656;13.064;2023-01-09T09:56:20;10.70;;;9.80;;
19089;SDS011;9677;50.656;13.064;2023-01-09T09:58:51;10.70;;;9.70;;
19089;SDS011;9677;50.656;13.064;2023-01-09T10:01:26;10.13;;;9.33;;
19089;SDS011;9677;50.656;13.064;2023-01-09T10:04:03;10.27;;;9.37;;
19089;SDS011;9677;50.656;13.064;2023-01-09T10:06:39;10.00;;;9.20;;
19089;SDS011;9677;50.656;13.064;2023-01-09T10:09:13;10.30;;;9.40;;
19089;SDS011;9677;50.656;13.064;2023-01-09T10:11:54;9.93;;;9.13;;
19089;SDS011;9677;50.656;13.064;2023-01-09T10:14:26;9.80;;;9.00;;
19089;SDS011;9677;50.656;13.064;2023-01-09T10:17:03;10.30;;;9.50;;
19089;SDS011;9677;50.656;13.064;2023-01-09T10:19:56;10.80;;;9.90;;
19089;SDS011;9677;50.656;13.064;2023-01-09T10:22:54;9.70;;;8.90;;
19089;SDS011;9677;50.656;13.064;2023-01-09T10:25:37;9.93;;;9.13;;
19089;SDS011;9677;50.656;13.064;2023-01-09T10:28:16;9.80;;;9.00;;
19089;SDS011;9677;50.656;13.064;2023-01-09T10:31:03;10.23;;;9.43;;
19089;SDS011;9677;50.656;13.064;2023-01-09T10:33:47;10.10;;;9.27;;
19089;SDS011;9677;50.656;13.064;2023-01-09T10:36:28;10.30;;;9.50;;
19089;SDS011;9677;50.656;13.064;2023-01-09T10:39:23;10.47;;;9.57;;
19089;SDS011;9677;50.656;13.064;2023-01-09T10:41:59;10.03;;;9.23;;
19089;SDS011;9677;50.656;13.064;2023-01-09T10:44:37;10.10;;;9.30;;
19089;SDS011;9677;50.656;13.064;2023-01-09T10:47:15;10.20;;;9.37;;
19089;SDS011;9677;50.656;13.064;2023-01-09T10:49:47;9.90;;;9.10;;
19089;SDS011;9677;50.656;13.064;2023-01-09T10:52:18;10.23;;;9.43;;
19089;SDS011;9677;50.656;13.064;2023-01-09T10:54:53;10.27;;;9.47;;
19089;SDS011;9677;50.656;13.064;2023-01-09T10:57:33;10.20;;;9.03;;
19089;SDS011;9677;50.656;13.064;2023-01-09T11:00:13;9.73;;;8.93;;
19089;SDS011;9677;50.656;13.064;2023-01-09T11:02:48;10.27;;;9.47;;
19089;SDS011;9677;50.656;13.064;2023-01-09T11:05:20;10.10;;;9.30;;
19089;SDS011;9677;50.656;13.064;2023-01-09T11:07:52;10.33;;;9.53;;
19089;SDS011;9677;50.656;13.064;2023-01-09T11:10:24;9.80;;;9.00;;
19089;SDS011;9677;50.656;13.064;2023-01-09T11:13:16;9.77;;;8.97;;
19089;SDS011;9677;50.656;13.064;2023-01-09T11:15:57;10.03;;;9.13;;
19089;SDS011;9677;50.656;13.064;2023-01-09T11:18:32;10.33;;;9.50;;
19089;SDS011;9677;50.656;13.064;2023-01-09T11:21:23;10.23;;;9.33;;
19089;SDS011;9677;50.656;13.064;2023-01-09T11:24:17;9.90;;;9.10;;
19089;SDS011;9677;50.656;13.064;2023-01-09T11:30:13;10.10;;;9.30;;
19089;SDS011;9677;50.656;13.064;2023-01-09T11:32:49;10.40;;;9.50;;
19089;SDS011;9677;50.656;13.064;2023-01-09T11:35:22;10.17;;;9.33;;
19089;SDS011;9677;50.656;13.064;2023-01-09T11:40:44;10.53;;;9.63;;
19089;SDS011;9677;50.656;13.064;2023-01-09T11:43:17;9.60;;;8.90;;
19089;SDS011;9677;50.656;13.064;2023-01-09T11:45:59;10.03;;;9.23;;
19089;SDS011;9677;50.656;13.064;2023-01-09T11:48:35;10.57;;;9.67;;
19089;SDS011;9677;50.656;13.064;2023-01-09T11:51:17;9.90;;;9.10;;
19089;SDS011;9677;50.656;13.064;2023-01-09T11:53:57;10.30;;;9.40;;
19089;SDS011;9677;50.656;13.064;2023-01-09T11:56:34;10.50;;;9.60;;
19089;SDS011;9677;50.656;13.064;2023-01-09T11:59:07;10.70;;;9.80;;
19089;SDS011;9677;50.656;13.064;2023-01-09T12:01:44;9.87;;;9.07;;
19089;SDS011;9677;50.656;13.064;2023-01-09T12:05:05;10.47;;;9.57;;
19089;SDS011;9677;50.656;13.064;2023-01-09T12:14:02;10.23;;;9.43;;
19089;SDS011;9677;50.656;13.064;2023-01-09T12:16:46;10.07;;;9.27;;
19089;SDS011;9677;50.656;13.064;2023-01-09T12:19:38;10.13;;;9.33;;
19089;SDS011;9677;50.656;13.064;2023-01-09T12:22:21;10.07;;;9.20;;
19089;SDS011;9677;50.656;13.064;2023-01-09T12:25:05;9.63;;;8.83;;
19089;SDS011;9677;50.656;13.064;2023-01-09T12:27:53;10.20;;;9.40;;
19089;SDS011;9677;50.656;13.064;2023-01-09T12:30:42;10.47;;;9.57;;
19089;SDS011;9677;50.656;13.064;2023-01-09T12:33:29;10.10;;;9.30;;
19089;SDS011;9677;50.656;13.064;2023-01-09T12:36:12;10.27;;;9.47;;
19089;SDS011;9677;50.656;13.064;2023-01-09T12:38:49;10.00;;;9.20;;
19089;SDS011;9677;50.656;13.064;2023-01-09T12:41:26;10.23;;;9.33;;
19089;SDS011;9677;50.656;13.064;2023-01-09T12:44:29;9.90;;;9.10;;
19089;SDS011;9677;50.656;13.064;2023-01-09T12:53:25;10.73;;;9.83;;
19089;SDS011;9677;50.656;13.064;2023-01-09T12:55:58;11.17;;;10.07;;
19089;SDS011;9677;50.656;13.064;2023-01-09T12:58:33;10.13;;;9.33;;
19089;SDS011;9677;50.656;13.064;2023-01-09T13:01:11;10.23;;;9.43;;
19089;SDS011;9677;50.656;13.064;2023-01-09T13:03:46;10.47;;;9.57;;
19089;SDS011;9677;50.656;13.064;2023-01-09T13:06:28;10.37;;;9.50;;
19089;SDS011;9677;50.656;13.064;2023-01-09T13:09:05;9.90;;;9.00;;
19089;SDS011;9677;50.656;13.064;2023-01-09T13:11:46;10.50;;;9.70;;
19089;SDS011;9677;50.656;13.064;2023-01-09T13:14:21;9.83;;;9.03;;
19089;SDS011;9677;50.656;13.064;2023-01-09T13:17:02;10.43;;;9.63;;
19089;SDS011;9677;50.656;13.064;2023-01-09T13:19:33;10.70;;;9.70;;
19089;SDS011;9677;50.656;13.064;2023-01-09T13:22:05;10.33;;;9.53;;
19089;SDS011;9677;50.656;13.064;2023-01-09T13:24:41;10.37;;;9.47;;
19089;SDS011;9677;50.656;13.064;2023-01-09T13:27:50;10.47;;;9.57;;
19089;SDS011;9677;50.656;13.064;2023-01-09T13:30:30;10.70;;;9.80;;
19089;SDS011;9677;50.656;13.064;2023-01-09T13:33:14;9.97;;;9.17;;
19089;SDS011;9677;50.656;13.064;2023-01-09T13:35:47;9.50;;;8.80;;
19089;SDS011;9677;50.656;13.064;2023-01-09T13:38:19;10.10;;;9.30;;
19089;SDS011;9677;50.656;13.064;2023-01-09T13:40:59;10.10;;;9.30;;
19089;SDS011;9677;50.656;13.064;2023-01-09T13:43:57;10.40;;;9.40;;
19089;SDS011;9677;50.656;13.064;2023-01-09T13:46:34;10.27;;;9.27;;
19089;SDS011;9677;50.656;13.064;2023-01-09T13:52:33;10.43;;;9.53;;
19089;SDS011;9677;50.656;13.064;2023-01-09T14:00:54;10.50;;;9.70;;
19089;SDS011;9677;50.656;13.064;2023-01-09T14:03:32;9.80;;;9.00;;
19089;SDS011;9677;50.656;13.064;2023-01-09T14:06:12;10.30;;;9.40;;
19089;SDS011;9677;50.656;13.064;2023-01-09T14:08:44;9.90;;;9.10;;
19089;SDS011;9677;50.656;13.064;2023-01-09T14:11:17;10.40;;;9.60;;
19089;SDS011;9677;50.656;13.064;2023-01-09T14:16:52;10.30;;;9.40;;
19089;SDS011;9677;50.656;13.064;2023-01-09T14:19:31;10.90;;;9.80;;
19089;SDS011;9677;50.656;13.064;2023-01-09T14:22:03;10.23;;;9.43;;
19089;SDS011;9677;50.656;13.064;2023-01-09T14:24:38;9.97;;;9.17;;
19089;SDS011;9677;50.656;13.064;2023-01-09T14:30:37;10.07;;;9.27;;
19089;SDS011;9677;50.656;13.064;2023-01-09T14:33:30;9.97;;;9.17;;
19089;SDS011;9677;50.656;13.064;2023-01-09T14:36:02;10.07;;;9.27;;
19089;SDS011;9677;50.656;13.064;2023-01-09T14:38:41;10.30;;;9.43;;
19089;SDS011;9677;50.656;13.064;2023-01-09T14:41:17;10.03;;;9.23;;
19089;SDS011;9677;50.656;13.064;2023-01-09T14:44:18;10.53;;;9.63;;
19089;SDS011;9677;50.656;13.064;2023-01-09T14:46:53;9.83;;;9.03;;
19089;SDS011;9677;50.656;13.064;2023-01-09T14:49:29;10.13;;;9.33;;
19089;SDS011;9677;50.656;13.064;2023-01-09T14:52:06;9.90;;;9.10;;
19089;SDS011;9677;50.656;13.064;2023-01-09T14:54:42;10.20;;;9.40;;
19089;SDS011;9677;50.656;13.064;2023-01-09T14:57:23;10.43;;;9.53;;
19089;SDS011;9677;50.656;13.064;2023-01-09T14:59:57;9.90;;;9.10;;
19089;SDS011;9677;50.656;13.064;2023-01-09T15:02:29;10.27;;;9.47;;
19089;SDS011;9677;50.656;13.064;2023-01-09T15:05:02;9.93;;;9.13;;
19089;SDS011;9677;50.656;13.064;2023-01-09T15:07:35;10.57;;;9.60;;
19089;SDS011;9677;50.656;13.064;2023-01-09T15:10:14;10.27;;;9.37;;
19089;SDS011;9677;50.656;13.064;2023-01-09T15:12:47;9.93;;;9.13;;
19089;SDS011;9677;50.656;13.064;2023-01-09T15:15:20;10.37;;;9.57;;
19089;SDS011;9677;50.656;13.064;2023-01-09T15:17:52;10.53;;;9.63;;
19089;SDS011;9677;50.656;13.064;2023-01-09T15:20:24;10.43;;;9.53;;
19089;SDS011;9677;50.656;13.064;2023-01-09T15:22:57;10.17;;;9.27;;
19089;SDS011;9677;50.656;13.064;2023-01-09T15:25:29;10.73;;;9.73;;
19089;SDS011;9677;50.656;13.064;2023-01-09T15:30:56;10.37;;;9.47;;
19089;SDS011;9677;50.656;13.064;2023-01-09T15:33:30;10.63;;;9.73;;
19089;SDS011;9677;50.656;13.064;2023-01-09T15:35:59;10.77;;;9.67;;
19089;SDS011;9677;50.656;13.064;2023-01-09T15:38:34;10.43;;;9.53;;
19089;SDS011;9677;50.656;13.064;2023-01-09T15:41:07;10.63;;;9.63;;
19089;SDS011;9677;50.656;13.064;2023-01-09T15:43:40;10.20;;;9.40;;
19089;SDS011;9677;50.656;13.064;2023-01-09T15:46:10;10.30;;;9.50;;